Airfield :
LOGIN :

Register | Disclaimer

   EN    FR    IT 

 










Legend :    VFR   Marginal VFR   IFR   Intensive IFR   Very Intensive IFR
Visi :
Ceiling :
>= 8 km
>= 3000ft
5 to 8 km
1000 to 3000 ft
1500m to 5 km
500 to 1000 ft
800 to 1500m
200 to 500 ft
< 800m
< 200 ft
Symbols :   Thunderstorms  Fog  Heavy snow  Heavy precipitations  Wind > 20 kt
SIGMETs :     Misc.  Thunderstorms  Icing  Turbulence  Mountain Waves  Volcanic Ashes







- Airport Elevation : 388 ft
- IATA code : QYR
- Download approach charts


LFQB - Troyes Barberey

CURRENT METAR :
  • 192000Z AUTO 16006KT CAVOK 17/10 Q1010

EXPIRED METARs :
  • 191930Z AUTO 20005KT CAVOK 16/11 Q1010
  • 191900Z AUTO 16005KT CAVOK 18/11 Q1010
  • 191830Z AUTO 16005KT CAVOK 18/11 Q1010
  • 191800Z AUTO 18004KT CAVOK 16/12 Q1010
  • 191730Z AUTO 15006KT CAVOK 18/11 Q1009

TAF N/A
No reported NOTAMs for that airfield.
1 SIGMET reported for the Paris FIR (LFFF) :
 
Severe turbulence
LFFF SIGMET 1 VALID 191900/192300 LFPW
LFFF PARIS FIR/UIR SEV TURB FCST W OF LINE N4815 W00015 - N5015 E00030 SFC/FL060 MOV NE 30KT NC=



MET'MAP, your aeronautical weather chart ! - Copyright ORBIFLY December 2007 - Disclaimer

ORBIFLY MET'MAP TEAM :

Programming & Development : Alexandra Zaïnal
Concept & Development : Baudouin d'Aumeries
Co-Development & Prog : Marc-Olivier Méhu
Technical & hardware support : Manuel Goepfert

Contact : metmap@orbifly.com




SOURCES & CREDITS :

   NOAA